Time;durP1;ratioP1;P1;durP2;ratioP2;P2;SDS_P1;SDS_P2;PMS_P1;PMS_P2;Temp;Humidity;BMP_temperature;BMP_pressure;BME280_temperature;BME280_humidity;BME280_pressure;Samples;Min_cycle;Max_cycle;Signal;HPM_P1;HPM_P2
2023/07/27 00:04:12;;;;;;;0.80;0.50;;;11.30;96.60;;;;;;25592409;23;20452;-57
2023/07/27 00:14:14;;;;;;;0.52;0.30;;;11.20;96.00;;;;;;25592079;23;20375;-58
2023/07/27 00:24:16;;;;;;;1.00;0.35;;;11.30;96.70;;;;;;25592598;23;20009;-48
2023/07/27 00:34:18;;;;;;;0.90;0.35;;;11.10;96.20;;;;;;25590779;23;20017;-49
2023/07/27 00:44:20;;;;;;;1.00;0.57;;;11.00;97.70;;;;;;25590699;23;20028;-48
2023/07/27 00:54:22;;;;;;;0.82;0.50;;;10.60;98.30;;;;;;25563918;23;20016;-57
2023/07/27 01:04:25;;;;;;;0.60;0.35;;;10.10;99.90;;;;;;25589941;23;20079;-46
2023/07/27 01:14:52;;;;;;;2.75;0.32;;;9.60;99.90;;;;;;25589631;23;20004;-57
2023/07/27 01:24:53;;;;;;;0.60;0.40;;;9.30;99.90;;;;;;25630729;23;20448;-57
2023/07/27 01:34:59;;;;;;;0.70;0.40;;;9.00;99.90;;;;;;25589431;23;20025;-46
2023/07/27 01:45:03;;;;;;;1.13;0.50;;;8.80;99.90;;;;;;25603905;23;20005;-50
2023/07/27 01:55:07;;;;;;;0.90;0.45;;;8.80;99.90;;;;;;25588947;23;20012;-46
2023/07/27 02:05:10;;;;;;;1.27;0.55;;;8.70;99.90;;;;;;25595241;23;20091;-46
2023/07/27 02:15:17;;;;;;;1.00;0.40;;;8.40;99.90;;;;;;25570264;23;20005;-50
2023/07/27 02:25:19;;;;;;;1.23;0.50;;;8.50;99.90;;;;;;25637232;23;20005;-45
2023/07/27 02:35:21;;;;;;;1.17;0.50;;;8.70;99.90;;;;;;25569360;23;20013;-45
2023/07/27 02:45:28;;;;;;;0.70;0.40;;;8.60;99.90;;;;;;25610483;23;20001;-50
2023/07/27 02:55:30;;;;;;;0.93;0.45;;;8.30;99.90;;;;;;25568738;23;20388;-47
2023/07/27 03:05:35;;;;;;;2.65;0.50;;;8.10;99.90;;;;;;25594551;23;20009;-49
2023/07/27 03:15:40;;;;;;;0.75;0.35;;;8.00;99.90;;;;;;25594051;23;20009;-48
2023/07/27 03:25:44;;;;;;;0.90;0.47;;;8.10;99.90;;;;;;25593749;23;20107;-55
2023/07/27 03:35:46;;;;;;;1.52;0.43;;;8.00;99.90;;;;;;25593522;23;20355;-48
2023/07/27 03:45:48;;;;;;;0.90;0.50;;;8.00;99.90;;;;;;25566948;23;20016;-58
2023/07/27 03:55:50;;;;;;;1.30;0.55;;;7.90;99.90;;;;;;25592617;23;20005;-50
2023/07/27 04:05:52;;;;;;;0.77;0.40;;;8.00;99.90;;;;;;25567122;23;20009;-53
2023/07/27 04:15:54;;;;;;;0.88;0.60;;;8.10;99.90;;;;;;25592242;23;20060;-48
2023/07/27 04:25:56;;;;;;;1.20;0.50;;;8.30;99.90;;;;;;25591270;23;20009;-48
2023/07/27 04:36:01;;;;;;;0.70;0.45;;;8.70;99.90;;;;;;25564799;23;20040;-46
2023/07/27 04:46:03;;;;;;;1.02;0.45;;;9.20;99.90;;;;;;25565684;23;20001;-56
2023/07/27 04:56:04;;;;;;;0.47;0.30;;;9.60;99.90;;;;;;25589633;23;20040;-50
2023/07/27 05:06:07;;;;;;;0.43;0.30;;;9.90;99.90;;;;;;25590007;23;20097;-55
2023/07/27 05:16:08;;;;;;;0.68;0.40;;;10.30;99.90;;;;;;25589696;23;20009;-57
2023/07/27 05:26:10;;;;;;;0.73;0.40;;;;;;;;;;25589482;23;20055;-56
2023/07/27 05:36:12;;;;;;;0.98;0.40;;;10.90;99.90;;;;;;25589039;23;20021;-49
2023/07/27 05:46:14;;;;;;;0.70;0.40;;;11.50;99.90;;;;;;25588978;23;20008;-56
2023/07/27 05:56:16;;;;;;;1.85;0.35;;;11.90;99.90;;;;;;25588861;23;20051;-48
2023/07/27 06:06:17;;;;;;;0.50;0.35;;;12.30;99.90;;;;;;25588758;23;20389;-51
2023/07/27 06:16:19;;;;;;;0.47;0.30;;;13.20;99.90;;;;;;25588251;23;20079;-57
2023/07/27 06:26:21;;;;;;;1.40;0.40;;;14.20;99.90;;;;;;25588094;23;20001;-47
2023/07/27 06:36:23;;;;;;;0.40;0.30;;;15.10;99.90;;;;;;25587937;23;20067;-50
2023/07/27 06:46:26;;;;;;;1.65;0.30;;;16.60;99.90;;;;;;25590168;23;20001;-54
2023/07/27 06:56:28;;;;;;;0.40;0.30;;;18.30;99.80;;;;;;25594934;23;20005;-57
2023/07/27 07:06:30;;;;;;;0.80;0.30;;;18.20;98.90;;;;;;25594797;23;20005;-57
2023/07/27 07:16:32;;;;;;;0.82;0.50;;;17.90;99.10;;;;;;25594391;23;20001;-57
2023/07/27 07:26:34;;;;;;;0.88;0.30;;;18.70;98.20;;;;;;25593914;23;20008;-57
2023/07/27 07:36:36;;;;;;;0.57;0.40;;;18.90;97.40;;;;;;25593184;23;20083;-56
2023/07/27 07:46:38;;;;;;;1.20;0.50;;;19.20;98.50;;;;;;25593012;23;20005;-58
2023/07/27 07:56:40;;;;;;;0.95;0.40;;;19.20;97.80;;;;;;25592250;23;20005;-58
2023/07/27 08:06:42;;;;;;;0.80;0.40;;;18.60;98.60;;;;;;25592303;23;20005;-48
2023/07/27 08:16:44;;;;;;;1.10;0.40;;;18.60;99.00;;;;;;25591834;23;20509;-57
2023/07/27 08:26:46;;;;;;;0.43;0.30;;;19.60;97.40;;;;;;25591172;23;20009;-51
2023/07/27 08:36:50;;;;;;;0.73;0.50;;;19.50;97.40;;;;;;25590124;23;20016;-57
2023/07/27 08:46:53;;;;;;;0.77;0.35;;;19.80;97.80;;;;;;25589437;23;20005;-57
2023/07/27 08:56:55;;;;;;;2.42;0.57;;;21.30;96.60;;;;;;25589831;23;20013;-58
2023/07/27 09:07:08;;;;;;;0.63;0.40;;;21.10;94.70;;;;;;25589665;23;20009;-58
2023/07/27 09:17:12;;;;;;;0.43;0.30;;;21.00;96.00;;;;;;25631033;23;20016;-58
2023/07/27 09:27:15;;;;;;;1.58;0.45;;;22.10;95.20;;;;;;25562574;23;20005;-57
2023/07/27 09:37:18;;;;;;;1.33;0.70;;;22.20;95.40;;;;;;25588642;23;20083;-57
2023/07/27 09:47:21;;;;;;;2.15;0.60;;;22.50;94.80;;;;;;25589021;23;20008;-58
2023/07/27 09:57:24;;;;;;;0.90;0.60;;;22.90;95.70;;;;;;25588406;23;20005;-58
2023/07/27 10:07:27;;;;;;;1.58;0.80;;;23.90;93.60;;;;;;25589574;23;20013;-58
2023/07/27 10:17:44;;;;;;;2.55;0.60;;;23.70;93.40;;;;;;25588618;23;20016;-58
2023/07/27 10:27:56;;;;;;;1.13;0.50;;;23.70;93.50;;;;;;25638361;23;20005;-58
2023/07/27 10:38:00;;;;;;;2.08;0.70;;;23.70;95.00;;;;;;25610265;23;20075;-57
2023/07/27 10:48:02;;;;;;;1.67;0.88;;;22.40;97.00;;;;;;25595313;23;20001;-58
2023/07/27 10:58:05;;;;;;;1.30;0.85;;;23.10;94.50;;;;;;25593760;23;20020;-58
2023/07/27 11:08:07;;;;;;;3.30;1.50;;;23.10;96.70;;;;;;25594412;23;20078;-57
2023/07/27 11:18:10;;;;;;;2.15;1.80;;;24.10;95.30;;;;;;25594215;23;20020;-57
2023/07/27 11:28:12;;;;;;;3.88;1.83;;;24.60;91.40;;;;;;25593445;23;20006;-57
2023/07/27 11:38:15;;;;;;;4.50;1.50;;;24.10;94.60;;;;;;25592883;23;20017;-57
2023/07/27 11:48:17;;;;;;;2.47;1.20;;;23.70;95.20;;;;;;25593163;23;20010;-57
2023/07/27 11:58:19;;;;;;;4.70;1.10;;;23.80;96.50;;;;;;25566541;23;20332;-57
2023/07/27 12:08:22;;;;;;;1.85;1.30;;;24.30;95.20;;;;;;25592476;23;20333;-57
2023/07/27 12:18:33;;;;;;;3.42;1.10;;;24.90;94.40;;;;;;25591521;23;20004;-57
2023/07/27 12:28:35;;;;;;;1.58;1.00;;;24.20;94.60;;;;;;25632463;23;20008;-50
2023/07/27 12:38:37;;;;;;;2.15;1.33;;;24.70;94.90;;;;;;25590822;23;20510;-56
2023/07/27 12:48:39;;;;;;;4.45;1.30;;;24.50;94.30;;;;;;25590363;23;20001;-58
2023/07/27 12:58:40;;;;;;;3.47;1.20;;;24.20;94.60;;;;;;25589972;23;20391;-58
2023/07/27 13:08:43;;;;;;;3.13;1.17;;;23.60;94.90;;;;;;25589764;23;20004;-58
2023/07/27 13:18:45;;;;;;;1.38;0.82;;;23.30;96.20;;;;;;25589533;23;20001;-58
2023/07/27 13:28:48;;;;;;;2.35;1.00;;;23.60;96.20;;;;;;25589125;23;20009;-51
2023/07/27 13:38:49;;;;;;;1.48;1.05;;;23.50;95.70;;;;;;25588848;23;20391;-57
2023/07/27 13:48:51;;;;;;;1.80;1.00;;;23.60;94.40;;;;;;25537675;23;20071;-57
2023/07/27 13:58:53;;;;;;;2.08;1.00;;;23.40;96.30;;;;;;25593546;23;20005;-57
2023/07/27 14:08:55;;;;;;;3.85;1.20;;;22.60;95.50;;;;;;25596390;23;20031;-47
2023/07/27 14:18:57;;;;;;;2.60;1.10;;;22.60;96.40;;;;;;25596460;23;20008;-56
2023/07/27 14:28:59;;;;;;;2.90;1.10;;;22.70;96.80;;;;;;25595939;23;20024;-57
2023/07/27 14:39:01;;;;;;;1.77;1.10;;;22.60;95.90;;;;;;25595937;23;20017;-57
2023/07/27 14:49:03;;;;;;;1.98;0.90;;;23.10;96.80;;;;;;25595573;23;20498;-57
2023/07/27 14:59:05;;;;;;;2.10;1.05;;;23.80;95.80;;;;;;25595085;23;20009;-58
2023/07/27 15:09:07;;;;;;;1.92;0.90;;;23.80;95.00;;;;;;25594370;23;20384;-56
2023/07/27 15:19:09;;;;;;;2.67;1.08;;;24.10;94.90;;;;;;25594404;23;20005;-57
2023/07/27 15:29:12;;;;;;;2.30;1.10;;;24.10;93.80;;;;;;25593713;23;20016;-56
2023/07/27 15:39:14;;;;;;;1.40;1.00;;;23.70;93.70;;;;;;25593305;23;20035;-56
2023/07/27 15:49:16;;;;;;;1.10;0.80;;;23.80;92.80;;;;;;25593209;23;20005;-56
2023/07/27 15:59:17;;;;;;;1.38;1.15;;;23.80;90.90;;;;;;25592842;23;20025;-55
2023/07/27 16:09:20;;;;;;;1.83;1.00;;;23.30;90.70;;;;;;25592039;23;20001;-55
2023/07/27 16:19:22;;;;;;;4.45;1.50;;;22.90;93.00;;;;;;25591616;23;20001;-50
2023/07/27 16:29:23;;;;;;;2.22;1.20;;;21.00;95.60;;;;;;25592977;23;20017;-56
2023/07/27 16:39:25;;;;;;;3.40;1.33;;;19.50;96.20;;;;;;25564057;23;20071;-57
2023/07/27 16:49:27;;;;;;;1.75;1.10;;;18.60;94.50;;;;;;25590850;23;20017;-56
2023/07/27 16:59:29;;;;;;;1.38;0.77;;;17.70;95.30;;;;;;25563644;23;20009;-56
2023/07/27 17:09:31;;;;;;;3.25;1.10;;;17.00;94.20;;;;;;25589337;23;20060;-57
2023/07/27 17:19:33;;;;;;;2.60;1.63;;;16.80;95.00;;;;;;25589523;23;20424;-56
2023/07/27 17:29:35;;;;;;;2.90;1.27;;;16.20;97.10;;;;;;25589177;23;20025;-47
2023/07/27 17:39:37;;;;;;;2.45;1.40;;;16.00;96.80;;;;;;25597038;23;20067;-57
2023/07/27 17:49:39;;;;;;;3.97;1.38;;;15.70;99.60;;;;;;25589287;23;20008;-50
2023/07/27 17:59:41;;;;;;;4.40;1.88;;;15.50;99.90;;;;;;25588088;23;20028;-57
2023/07/27 18:09:43;;;;;;;5.47;2.78;;;15.30;99.90;;;;;;25587747;23;20037;-57
2023/07/27 18:19:46;;;;;;;5.65;2.70;;;14.90;99.90;;;;;;25587787;23;20036;-57
2023/07/27 18:29:54;;;;;;;14.73;9.02;;;14.60;99.90;;;;;;25589088;23;20005;-57
2023/07/27 18:39:55;;;;;;;9.15;4.97;;;14.20;99.90;;;;;;25594757;23;20021;-57
2023/07/27 18:49:57;;;;;;;4.10;1.35;;;13.70;99.90;;;;;;25594687;23;20005;-56
2023/07/27 18:59:59;;;;;;;8.07;1.98;;;13.30;99.90;;;;;;25593810;23;20436;-55
2023/07/27 19:10:02;;;;;;;3.58;1.98;;;14.10;99.90;;;;;;25594326;23;20005;-56
2023/07/27 19:20:06;;;;;;;3.47;2.33;;;14.10;99.90;;;;;;25594121;23;20494;-57
2023/07/27 19:30:09;;;;;;;2.58;1.85;;;14.00;99.90;;;;;;25567013;23;20017;-47
2023/07/27 19:40:13;;;;;;;4.25;2.63;;;14.10;99.90;;;;;;25591936;23;20024;-55
2023/07/27 19:50:17;;;;;;;5.15;3.13;;;14.00;99.90;;;;;;25537336;23;20511;-54
2023/07/27 20:00:19;;;;;;;4.47;2.80;;;14.20;99.90;;;;;;25591069;23;20005;-55
2023/07/27 20:10:23;;;;;;;6.03;2.75;;;14.10;99.90;;;;;;25538975;23;20009;-46
2023/07/27 20:20:25;;;;;;;4.30;2.20;;;14.20;99.90;;;;;;25590004;23;20333;-54
2023/07/27 20:30:28;;;;;;;5.45;2.35;;;14.80;99.90;;;;;;25589928;23;20336;-54
2023/07/27 20:40:32;;;;;;;6.10;2.45;;;15.60;99.90;;;;;;25588409;23;20017;-54
2023/07/27 20:50:38;;;;;;;5.40;2.90;;;15.80;99.90;;;;;;25588683;23;20016;-53
2023/07/27 21:00:40;;;;;;;5.13;2.45;;;15.60;99.90;;;;;;25563852;23;20040;-54
2023/07/27 21:10:43;;;;;;;6.85;2.70;;;15.30;99.90;;;;;;25589284;23;20514;-54
2023/07/27 21:20:45;;;;;;;4.80;3.13;;;15.20;99.90;;;;;;25589346;23;20004;-54
2023/07/27 21:30:47;;;;;;;4.38;2.90;;;14.80;99.90;;;;;;25589237;23;20071;-55
2023/07/27 21:40:51;;;;;;;4.72;2.80;;;14.50;99.90;;;;;;25588089;23;20021;-55
2023/07/27 21:50:53;;;;;;;6.40;3.35;;;14.70;99.90;;;;;;25588318;23;20001;-53
2023/07/27 22:00:55;;;;;;;4.85;3.35;;;14.80;99.90;;;;;;25588877;23;20396;-51
2023/07/27 22:10:57;;;;;;;5.22;2.60;;;14.80;99.90;;;;;;25588510;23;20005;-54
2023/07/27 22:20:59;;;;;;;8.93;4.00;;;14.90;99.90;;;;;;25594114;23;20040;-46
2023/07/27 22:31:02;;;;;;;5.32;3.17;;;14.90;99.90;;;;;;25569668;23;20340;-53
2023/07/27 22:41:04;;;;;;;7.28;4.20;;;15.10;99.90;;;;;;25595793;23;20020;-55
2023/07/27 22:51:07;;;;;;;4.78;3.30;;;15.10;99.90;;;;;;25593931;23;20009;-56
2023/07/27 23:01:12;;;;;;;4.93;3.30;;;14.50;99.90;;;;;;25594962;23;20009;-56
2023/07/27 23:11:14;;;;;;;4.97;4.00;;;13.90;99.90;;;;;;25636007;23;20012;-55
2023/07/27 23:21:16;;;;;;;5.75;4.00;;;13.60;99.90;;;;;;25567436;23;20071;-54
2023/07/27 23:31:18;;;;;;;6.13;4.50;;;13.30;99.90;;;;;;25592754;23;20118;-56
2023/07/27 23:41:20;;;;;;;5.90;4.35;;;13.00;99.90;;;;;;25593604;23;20017;-53
2023/07/27 23:51:22;;;;;;;7.03;4.93;;;12.60;99.90;;;;;;25592796;23;20001;-54
